Latest Coastal Weather Observations for Arlington Reef

IDQ60701

Issued at 10:21 am EST Wednesday 8 July 2015 (issued every 10 minutes, with the page automatically refreshed every 10 minutes)

About coastal observations | Map of coastal stations | Coastal observations for QLD | Marine services | Other Formats
Station Details ID: 200879 Name: ARLINGTON REEF Lat: -16.72 Lon: 146.11 Height: 0.0 m
Data from the previous 72 hours. | See also: Recent months at Arlington Reef
Date/Time
EST
Temp

°C
Wind Pressure Rain
since 9am
mm
Weather Cloud Vis
km
Sea
Height
m
Swell
Dir
 
Speed
knots
Gust
knots
hPa Trend Height
m
Period
s
Dir
08/10:00am - SE 18 22 1017.2 - - - - - - - - -
08/09:30am - SE 20 25 1017.0 - - - - - - - - -
08/09:00am - SSE 18 22 1017.0 - - - - - - - - -
08/08:30am - S 20 24 1016.4 - - - - - - - - -
08/08:00am - S 19 22 1016.4 - - - - - - - - -
08/07:30am - S 19 22 1016.2 - - - - - - - - -
08/07:00am - S 18 22 1016.0 - - - - - - - - -
08/06:30am - S 19 23 1015.7 - - - - - - - - -
08/06:00am - S 17 20 1015.4 - - - - - - - - -
08/05:30am - S 16 18 1015.2 - - - - - - - - -
08/05:00am - S 14 17 1015.0 - - - - - - - - -
08/04:30am - S 13 15 1015.0 - - - - - - - - -
08/04:00am - SSE 12 14 1015.0 - - - - - - - - -
08/03:30am - SSE 11 15 1014.9 - - - - - - - - -
08/03:00am - SE 12 15 1014.7 - - - - - - - - -
08/02:30am - SE 13 16 1014.7 - - - - - - - - -
08/02:00am - SE 17 21 1014.7 - - - - - - - - -
08/01:30am - SSE 17 21 1014.7 - - - - - - - - -
08/01:00am - SSE 17 21 1015.0 - - - - - - - - -
08/12:30am - SSE 17 21 1015.2 - - - - - - - - -
08/12:00am - SE 17 19 1015.4 - - - - - - - - -
 
Date/Time
EST
Temp

°C
Wind Pressure Rain
since 9am
mm
Weather Cloud Vis
km
Sea
Height
m
Swell
Dir
 
Speed
knots
Gust
knots
hPa Trend Height
m
Period
s
Dir
07/11:30pm - SE 15 18 1015.4 - - - - - - - - -
07/11:00pm - SSE 15 18 1015.6 - - - - - - - - -
07/10:30pm - SSE 15 18 1015.8 - - - - - - - - -
07/10:00pm - SSE 16 18 1016.0 - - - - - - - - -
07/09:30pm - SE 17 19 1015.9 - - - - - - - - -
07/09:00pm - SSE 16 20 1015.7 - - - - - - - - -
07/08:30pm - SSE 17 21 1015.7 - - - - - - - - -
07/08:00pm - SSE 15 18 1015.6 - - - - - - - - -
07/07:30pm - SSE 17 21 1015.4 - - - - - - - - -
07/07:00pm - SSE 18 21 1015.2 - - - - - - - - -
07/06:30pm - SSE 18 21 1015.0 - - - - - - - - -
07/06:00pm - SSE 16 19 1014.8 - - - - - - - - -
07/05:30pm - SSE 16 19 1014.6 - - - - - - - - -
07/05:00pm - SSE 16 19 1014.5 - - - - - - - - -
07/04:30pm - SSE 17 19 1014.3 - - - - - - - - -
07/04:00pm - S 16 19 1014.3 - - - - - - - - -
07/03:30pm - S 15 17 1014.3 - - - - - - - - -
07/03:00pm - S 15 17 1014.4 - - - - - - - - -
07/02:30pm - S 14 17 1014.6 - - - - - - - - -
07/02:00pm - S 14 16 1014.8 - - - - - - - - -
07/01:30pm - S 14 16 1015.0 - - - - - - - - -
07/01:00pm - S 14 17 1015.6 - - - - - - - - -
07/12:30pm - S 13 16 1015.9 - - - - - - - - -
07/12:00pm - S 13 16 1016.2 - - - - - - - - -
07/11:30am - S 13 16 1016.7 - - - - - - - - -
07/11:00am - S 13 16 1016.9 - - - - - - - - -
07/10:30am - S 13 16 1017.1 - - - - - - - - -
07/10:00am - S 13 16 1017.1 - - - - - - - - -
07/09:30am - S 12 15 1017.4 - - - - - - - - -
07/09:00am - S 13 15 1017.4 - - - - - - - - -
07/08:30am - S 12 14 1017.1 - - - - - - - - -
07/08:00am - S 12 13 1016.7 - - - - - - - - -
07/07:30am - S 11 14 1016.3 - - - - - - - - -
07/07:00am - S 12 15 1015.9 - - - - - - - - -
07/06:30am - S 11 13 1015.6 - - - - - - - - -
07/06:00am - S 11 14 1015.1 - - - - - - - - -
07/05:30am - S 12 14 1014.8 - - - - - - - - -
07/05:00am - S 12 14 1014.6 - - - - - - - - -
07/04:30am - S 13 15 1014.3 - - - - - - - - -
07/04:00am - SSE 12 15 1014.1 - - - - - - - - -
07/03:30am - SE 13 16 1014.3 - - - - - - - - -
07/03:00am - SE 12 15 1014.4 - - - - - - - - -
07/02:30am - SE 12 16 1014.5 - - - - - - - - -
07/02:00am - SE 13 15 1015.0 - - - - - - - - -
07/01:30am - SE 13 15 1015.2 - - - - - - - - -
07/01:00am - SE 13 15 1015.4 - - - - - - - - -
07/12:30am - SE 13 16 1015.5 - - - - - - - - -
07/12:00am - SE 15 18 1015.6 - - - - - - - - -
 
Date/Time
EST
Temp

°C
Wind Pressure Rain
since 9am
mm
Weather Cloud Vis
km
Sea
Height
m
Swell
Dir
 
Speed
knots
Gust
knots
hPa Trend Height
m
Period
s
Dir
06/11:30pm - SE 15 18 1015.7 - - - - - - - - -
06/11:00pm - SE 15 19 1015.9 - - - - - - - - -
06/10:30pm - SE 14 17 1016.2 - - - - - - - - -
06/10:00pm - SE 15 18 1016.3 - - - - - - - - -
06/09:30pm - SE 16 18 1016.3 - - - - - - - - -
06/09:00pm - SSE 16 18 1016.2 - - - - - - - - -
06/08:30pm - SSE 16 18 1016.3 - - - - - - - - -
06/08:00pm - SE 16 20 1016.2 - - - - - - - - -
06/07:30pm - SSE 16 19 1015.9 - - - - - - - - -
06/07:00pm - SSE 16 19 1015.6 - - - - - - - - -
06/06:30pm - ESE 14 17 1015.5 - - - - - - - - -
06/06:00pm - S 10 13 1015.5 - - - - - - - - -
06/05:30pm - SE 11 12 1015.2 - - - - - - - - -
06/05:00pm - SSE 11 14 1015.1 - - - - - - - - -
06/04:30pm - SSE 16 20 1014.8 - - - - - - - - -
06/04:00pm - SE 12 15 1014.9 - - - - - - - - -
06/03:30pm - SSE 14 17 1014.8 - - - - - - - - -
06/03:00pm - SSE 15 18 1014.8 - - - - - - - - -
06/02:30pm - SSE 16 19 1015.0 - - - - - - - - -
06/02:00pm - SSE 15 18 1015.2 - - - - - - - - -
06/01:30pm - SE 16 19 1015.5 - - - - - - - - -
06/01:00pm - SSE 16 19 1015.9 - - - - - - - - -
06/12:30pm - SE 16 18 1016.3 - - - - - - - - -
06/12:00pm - SE 17 19 1016.7 - - - - - - - - -
06/11:30am - SE 17 20 1017.1 - - - - - - - - -
06/11:00am - SE 17 20 1017.4 - - - - - - - - -
06/10:30am - S 12 14 1017.7 - - - - - - - - -
06/10:00am - SSW 14 17 1017.7 - - - - - - - - -
06/09:30am - SSW 18 21 1017.6 - - - - - - - - -
06/09:00am - S 15 18 1017.3 - - - - - - - - -
06/08:30am - S 18 21 1017.2 - - - - - - - - -
06/08:00am - S 16 19 1016.9 - - - - - - - - -
06/07:30am - S 14 18 1016.8 - - - - - - - - -
06/07:00am - SE 16 20 1016.5 - - - - - - - - -
06/06:30am - SSW 16 18 1016.1 - - - - - - - - -
06/06:06am - SSE 17 28 1015.9 - - - - - - - - -
06/06:00am - S 15 22 1015.9 - - - - - - - - -
06/05:30am - ESE 11 15 1016.0 - - - - - - - - -
06/05:00am - SSE 18 21 1015.7 - - - - - - - - -
06/04:30am - SSE 16 19 1015.7 - - - - - - - - -
06/04:00am - SSE 19 23 1015.6 - - - - - - - - -
06/03:30am - S 19 22 1015.7 - - - - - - - - -
06/03:00am - S 11 18 1015.9 - - - - - - - - -
06/02:30am - SSE 16 20 1016.4 - - - - - - - - -
06/02:00am - S 19 21 1016.1 - - - - - - - - -
06/01:30am - S 18 21 1016.5 - - - - - - - - -
06/01:00am - S 21 26 1016.8 - - - - - - - - -
06/12:30am - S 21 25 1016.8 - - - - - - - - -
06/12:00am - S 18 24 1016.8 - - - - - - - - -
 
Date/Time
EST
Temp

°C
Wind Pressure Rain
since 9am
mm
Weather Cloud Vis
km
Sea
Height
m
Swell
Dir
 
Speed
knots
Gust
knots
hPa Trend Height
m
Period
s
Dir
05/11:30pm - SSE 16 20 1017.2 - - - - - - - - -
05/11:00pm - S 18 22 1017.5 - - - - - - - - -
05/10:30pm - SSE 18 25 1017.6 - - - - - - - - -
05/10:00pm - SSE 17 20 1017.4 - - - - - - - - -
05/09:30pm - S 20 28 1017.4 - - - - - - - - -
05/09:00pm - S 18 21 1017.3 - - - - - - - - -
05/08:30pm - S 19 24 1017.0 - - - - - - - - -
05/08:00pm - S 17 20 1016.9 - - - - - - - - -
05/07:30pm - SSE 19 21 1016.6 - - - - - - - - -
05/07:00pm - S 19 25 1016.1 - - - - - - - - -
05/06:30pm - SE 14 19 1016.0 - - - - - - - - -
05/06:00pm - S 18 22 1015.7 - - - - - - - - -
05/05:30pm - S 18 22 1015.4 - - - - - - - - -
05/05:00pm - SSE 15 18 1015.5 - - - - - - - - -
05/04:30pm - S 14 16 1015.4 - - - - - - - - -
05/04:00pm - S 15 18 1015.4 - - - - - - - - -
05/03:30pm - S 15 17 1015.3 - - - - - - - - -
05/03:00pm - SSE 14 17 1015.4 - - - - - - - - -
05/02:30pm - SE 14 16 1015.5 - - - - - - - - -
05/02:00pm - SE 13 15 1015.7 - - - - - - - - -
05/01:30pm - SE 13 15 1016.0 - - - - - - - - -
05/01:00pm - SE 6 7 1016.6 - - - - - - - - -
05/12:30pm - ESE 11 13 1017.0 - - - - - - - - -
05/12:00pm - SSE 8 10 1017.3 - - - - - - - - -
05/11:30am - SSE 8 17 1017.8 - - - - - - - - -
05/11:00am - SSE 8 12 1018.1 - - - - - - - - -
05/10:30am - ENE 11 14 1018.1 - - - - - - - - -

Other Formats:

Comma delimited format used in spreadsheet applications
http://www.bom.gov.au/fwo/IDQ60701/IDQ60701.94284.axf

JavaScript Object Notation format (JSON) in row-major order
http://www.bom.gov.au/fwo/IDQ60701/IDQ60701.94284.json